sensor_id;sensor_type;location;lat;lon;timestamp;P1;durP1;ratioP1;P2;durP2;ratioP2
17361;SDS011;8798;51.938;4.348;2022-08-19T00:01:43;3.63;;;2.40;;
17361;SDS011;8798;51.938;4.348;2022-08-19T00:04:21;4.50;;;2.83;;
17361;SDS011;8798;51.938;4.348;2022-08-19T00:06:51;3.10;;;2.50;;
17361;SDS011;8798;51.938;4.348;2022-08-19T00:09:20;5.93;;;2.30;;
17361;SDS011;8798;51.938;4.348;2022-08-19T00:11:49;3.20;;;2.70;;
17361;SDS011;8798;51.938;4.348;2022-08-19T00:14:17;4.00;;;2.40;;
17361;SDS011;8798;51.938;4.348;2022-08-19T00:16:47;4.23;;;2.60;;
17361;SDS011;8798;51.938;4.348;2022-08-19T00:19:15;4.90;;;2.60;;
17361;SDS011;8798;51.938;4.348;2022-08-19T00:21:44;4.30;;;2.97;;
17361;SDS011;8798;51.938;4.348;2022-08-19T00:24:13;4.50;;;2.60;;
17361;SDS011;8798;51.938;4.348;2022-08-19T00:26:42;3.60;;;2.50;;
17361;SDS011;8798;51.938;4.348;2022-08-19T00:29:11;3.50;;;2.77;;
17361;SDS011;8798;51.938;4.348;2022-08-19T00:31:41;5.23;;;2.67;;
17361;SDS011;8798;51.938;4.348;2022-08-19T00:34:09;4.77;;;2.37;;
17361;SDS011;8798;51.938;4.348;2022-08-19T00:36:38;3.17;;;2.60;;
17361;SDS011;8798;51.938;4.348;2022-08-19T00:39:07;3.73;;;2.70;;
17361;SDS011;8798;51.938;4.348;2022-08-19T00:41:36;5.27;;;2.27;;
17361;SDS011;8798;51.938;4.348;2022-08-19T00:44:05;4.40;;;2.57;;
17361;SDS011;8798;51.938;4.348;2022-08-19T00:46:36;5.60;;;2.57;;
17361;SDS011;8798;51.938;4.348;2022-08-19T00:49:06;5.80;;;2.43;;
17361;SDS011;8798;51.938;4.348;2022-08-19T00:51:37;3.07;;;2.17;;
17361;SDS011;8798;51.938;4.348;2022-08-19T00:54:05;4.27;;;2.57;;
17361;SDS011;8798;51.938;4.348;2022-08-19T00:56:34;4.50;;;2.90;;
17361;SDS011;8798;51.938;4.348;2022-08-19T00:59:06;3.63;;;2.73;;
17361;SDS011;8798;51.938;4.348;2022-08-19T01:01:36;4.80;;;2.90;;
17361;SDS011;8798;51.938;4.348;2022-08-19T01:04:04;6.60;;;3.33;;
17361;SDS011;8798;51.938;4.348;2022-08-19T01:06:32;4.00;;;3.23;;
17361;SDS011;8798;51.938;4.348;2022-08-19T01:09:03;6.17;;;3.97;;
17361;SDS011;8798;51.938;4.348;2022-08-19T01:11:41;5.40;;;4.17;;
17361;SDS011;8798;51.938;4.348;2022-08-19T01:14:10;7.37;;;4.40;;
17361;SDS011;8798;51.938;4.348;2022-08-19T01:16:39;6.87;;;5.00;;
17361;SDS011;8798;51.938;4.348;2022-08-19T01:19:09;8.20;;;4.57;;
17361;SDS011;8798;51.938;4.348;2022-08-19T01:21:45;6.00;;;4.43;;
17361;SDS011;8798;51.938;4.348;2022-08-19T01:24:20;7.47;;;5.30;;
17361;SDS011;8798;51.938;4.348;2022-08-19T01:26:48;7.07;;;4.80;;
17361;SDS011;8798;51.938;4.348;2022-08-19T01:29:15;8.17;;;5.43;;
17361;SDS011;8798;51.938;4.348;2022-08-19T01:31:45;8.10;;;5.23;;
17361;SDS011;8798;51.938;4.348;2022-08-19T01:34:13;8.13;;;5.80;;
17361;SDS011;8798;51.938;4.348;2022-08-19T01:36:43;9.40;;;5.97;;
17361;SDS011;8798;51.938;4.348;2022-08-19T01:39:14;13.07;;;7.40;;
17361;SDS011;8798;51.938;4.348;2022-08-19T01:41:45;16.43;;;8.87;;
17361;SDS011;8798;51.938;4.348;2022-08-19T01:44:14;12.07;;;8.03;;
17361;SDS011;8798;51.938;4.348;2022-08-19T01:46:45;17.30;;;10.43;;
17361;SDS011;8798;51.938;4.348;2022-08-19T01:49:14;21.37;;;11.73;;
17361;SDS011;8798;51.938;4.348;2022-08-19T01:51:44;21.07;;;11.57;;
17361;SDS011;8798;51.938;4.348;2022-08-19T01:54:13;21.47;;;12.00;;
17361;SDS011;8798;51.938;4.348;2022-08-19T01:56:55;19.00;;;11.53;;
17361;SDS011;8798;51.938;4.348;2022-08-19T01:59:27;21.20;;;12.73;;
17361;SDS011;8798;51.938;4.348;2022-08-19T02:01:55;19.23;;;11.17;;
17361;SDS011;8798;51.938;4.348;2022-08-19T02:04:23;18.50;;;11.57;;
17361;SDS011;8798;51.938;4.348;2022-08-19T02:06:51;16.33;;;10.63;;
17361;SDS011;8798;51.938;4.348;2022-08-19T02:09:19;16.87;;;11.63;;
17361;SDS011;8798;51.938;4.348;2022-08-19T02:11:47;19.20;;;11.77;;
17361;SDS011;8798;51.938;4.348;2022-08-19T02:14:16;17.90;;;11.70;;
17361;SDS011;8798;51.938;4.348;2022-08-19T02:16:44;18.77;;;10.43;;
17361;SDS011;8798;51.938;4.348;2022-08-19T02:19:12;17.87;;;10.93;;
17361;SDS011;8798;51.938;4.348;2022-08-19T02:21:39;17.83;;;10.40;;
17361;SDS011;8798;51.938;4.348;2022-08-19T02:24:07;15.67;;;10.33;;
17361;SDS011;8798;51.938;4.348;2022-08-19T02:26:35;19.67;;;10.97;;
17361;SDS011;8798;51.938;4.348;2022-08-19T02:29:03;21.37;;;11.57;;
17361;SDS011;8798;51.938;4.348;2022-08-19T02:31:33;17.77;;;11.07;;
17361;SDS011;8798;51.938;4.348;2022-08-19T02:34:00;24.33;;;11.80;;
17361;SDS011;8798;51.938;4.348;2022-08-19T02:36:28;19.27;;;11.17;;
17361;SDS011;8798;51.938;4.348;2022-08-19T02:38:57;20.23;;;11.33;;
17361;SDS011;8798;51.938;4.348;2022-08-19T02:41:25;17.93;;;10.70;;
17361;SDS011;8798;51.938;4.348;2022-08-19T02:43:54;18.10;;;10.83;;
17361;SDS011;8798;51.938;4.348;2022-08-19T02:46:44;19.73;;;11.00;;
17361;SDS011;8798;51.938;4.348;2022-08-19T02:49:13;17.83;;;10.80;;
17361;SDS011;8798;51.938;4.348;2022-08-19T02:51:43;18.87;;;10.17;;
17361;SDS011;8798;51.938;4.348;2022-08-19T02:54:12;18.00;;;10.07;;
17361;SDS011;8798;51.938;4.348;2022-08-19T02:56:41;18.27;;;10.57;;
17361;SDS011;8798;51.938;4.348;2022-08-19T02:59:10;16.10;;;9.97;;
17361;SDS011;8798;51.938;4.348;2022-08-19T03:01:39;18.27;;;10.33;;
17361;SDS011;8798;51.938;4.348;2022-08-19T03:04:10;18.80;;;11.17;;
17361;SDS011;8798;51.938;4.348;2022-08-19T03:06:44;18.03;;;10.20;;
17361;SDS011;8798;51.938;4.348;2022-08-19T03:09:13;17.30;;;9.87;;
17361;SDS011;8798;51.938;4.348;2022-08-19T03:11:42;23.70;;;12.40;;
17361;SDS011;8798;51.938;4.348;2022-08-19T03:14:10;26.03;;;13.80;;
17361;SDS011;8798;51.938;4.348;2022-08-19T03:16:40;25.40;;;13.20;;
17361;SDS011;8798;51.938;4.348;2022-08-19T03:19:12;30.27;;;14.37;;
17361;SDS011;8798;51.938;4.348;2022-08-19T03:21:42;28.83;;;15.37;;
17361;SDS011;8798;51.938;4.348;2022-08-19T03:24:11;34.70;;;16.60;;
17361;SDS011;8798;51.938;4.348;2022-08-19T03:26:40;31.70;;;15.77;;
17361;SDS011;8798;51.938;4.348;2022-08-19T03:29:08;34.17;;;17.30;;
17361;SDS011;8798;51.938;4.348;2022-08-19T03:31:39;34.37;;;17.57;;
17361;SDS011;8798;51.938;4.348;2022-08-19T03:34:20;33.43;;;17.93;;
17361;SDS011;8798;51.938;4.348;2022-08-19T03:36:52;33.90;;;17.67;;
17361;SDS011;8798;51.938;4.348;2022-08-19T03:39:22;36.30;;;18.17;;
17361;SDS011;8798;51.938;4.348;2022-08-19T03:41:51;38.93;;;19.33;;
17361;SDS011;8798;51.938;4.348;2022-08-19T03:44:43;40.07;;;18.87;;
17361;SDS011;8798;51.938;4.348;2022-08-19T03:47:11;39.17;;;18.97;;
17361;SDS011;8798;51.938;4.348;2022-08-19T03:49:44;36.03;;;18.93;;
17361;SDS011;8798;51.938;4.348;2022-08-19T03:52:12;42.30;;;19.10;;
17361;SDS011;8798;51.938;4.348;2022-08-19T03:54:40;38.93;;;19.30;;
17361;SDS011;8798;51.938;4.348;2022-08-19T03:57:09;35.90;;;17.53;;
17361;SDS011;8798;51.938;4.348;2022-08-19T03:59:37;37.43;;;18.43;;
17361;SDS011;8798;51.938;4.348;2022-08-19T04:02:07;37.67;;;17.87;;
17361;SDS011;8798;51.938;4.348;2022-08-19T04:04:37;38.93;;;17.83;;
17361;SDS011;8798;51.938;4.348;2022-08-19T04:07:08;35.03;;;17.53;;
17361;SDS011;8798;51.938;4.348;2022-08-19T04:09:37;33.80;;;17.30;;
17361;SDS011;8798;51.938;4.348;2022-08-19T04:12:05;36.67;;;17.10;;
17361;SDS011;8798;51.938;4.348;2022-08-19T04:14:33;32.50;;;16.70;;
17361;SDS011;8798;51.938;4.348;2022-08-19T04:17:02;29.67;;;15.60;;
17361;SDS011;8798;51.938;4.348;2022-08-19T04:19:32;33.73;;;16.50;;
17361;SDS011;8798;51.938;4.348;2022-08-19T04:22:00;30.63;;;16.60;;
17361;SDS011;8798;51.938;4.348;2022-08-19T04:24:30;31.37;;;15.73;;
17361;SDS011;8798;51.938;4.348;2022-08-19T04:26:59;30.90;;;15.90;;
17361;SDS011;8798;51.938;4.348;2022-08-19T04:29:28;30.57;;;15.63;;
17361;SDS011;8798;51.938;4.348;2022-08-19T04:31:57;30.57;;;15.83;;
17361;SDS011;8798;51.938;4.348;2022-08-19T04:34:34;33.37;;;15.73;;
17361;SDS011;8798;51.938;4.348;2022-08-19T04:37:22;34.30;;;15.73;;
17361;SDS011;8798;51.938;4.348;2022-08-19T04:39:56;29.57;;;15.13;;
17361;SDS011;8798;51.938;4.348;2022-08-19T04:42:41;29.53;;;15.00;;
17361;SDS011;8798;51.938;4.348;2022-08-19T04:45:09;30.13;;;15.27;;
17361;SDS011;8798;51.938;4.348;2022-08-19T04:47:39;32.30;;;15.80;;
17361;SDS011;8798;51.938;4.348;2022-08-19T04:50:24;28.43;;;15.30;;
17361;SDS011;8798;51.938;4.348;2022-08-19T04:52:52;30.27;;;15.97;;
17361;SDS011;8798;51.938;4.348;2022-08-19T04:55:23;29.60;;;15.67;;
17361;SDS011;8798;51.938;4.348;2022-08-19T04:57:52;27.73;;;13.93;;
17361;SDS011;8798;51.938;4.348;2022-08-19T05:00:21;33.00;;;15.27;;
17361;SDS011;8798;51.938;4.348;2022-08-19T05:02:48;28.40;;;15.87;;
17361;SDS011;8798;51.938;4.348;2022-08-19T05:05:16;30.30;;;16.20;;
17361;SDS011;8798;51.938;4.348;2022-08-19T05:07:46;30.10;;;15.50;;
17361;SDS011;8798;51.938;4.348;2022-08-19T05:10:13;32.43;;;15.47;;
17361;SDS011;8798;51.938;4.348;2022-08-19T05:12:42;28.83;;;15.67;;
17361;SDS011;8798;51.938;4.348;2022-08-19T05:15:11;29.70;;;14.87;;
17361;SDS011;8798;51.938;4.348;2022-08-19T05:17:38;28.67;;;15.17;;
17361;SDS011;8798;51.938;4.348;2022-08-19T05:20:27;26.93;;;13.93;;
17361;SDS011;8798;51.938;4.348;2022-08-19T05:23:12;29.37;;;14.43;;
17361;SDS011;8798;51.938;4.348;2022-08-19T05:25:47;26.47;;;14.27;;
17361;SDS011;8798;51.938;4.348;2022-08-19T05:28:16;26.27;;;13.87;;
17361;SDS011;8798;51.938;4.348;2022-08-19T05:30:44;24.30;;;13.00;;
17361;SDS011;8798;51.938;4.348;2022-08-19T05:33:14;27.93;;;13.37;;
17361;SDS011;8798;51.938;4.348;2022-08-19T05:35:41;23.83;;;12.57;;
17361;SDS011;8798;51.938;4.348;2022-08-19T05:38:10;29.60;;;14.27;;
17361;SDS011;8798;51.938;4.348;2022-08-19T05:40:38;24.90;;;13.33;;
17361;SDS011;8798;51.938;4.348;2022-08-19T05:43:07;21.73;;;13.33;;
17361;SDS011;8798;51.938;4.348;2022-08-19T05:45:39;24.47;;;13.07;;
17361;SDS011;8798;51.938;4.348;2022-08-19T05:48:08;23.87;;;13.27;;
17361;SDS011;8798;51.938;4.348;2022-08-19T05:50:37;29.23;;;13.77;;
17361;SDS011;8798;51.938;4.348;2022-08-19T05:53:06;26.30;;;13.90;;
17361;SDS011;8798;51.938;4.348;2022-08-19T05:55:35;24.83;;;13.43;;
17361;SDS011;8798;51.938;4.348;2022-08-19T05:58:07;24.53;;;13.10;;
17361;SDS011;8798;51.938;4.348;2022-08-19T06:00:35;22.43;;;12.93;;
17361;SDS011;8798;51.938;4.348;2022-08-19T06:03:06;23.40;;;12.80;;
17361;SDS011;8798;51.938;4.348;2022-08-19T06:05:38;22.17;;;12.83;;
17361;SDS011;8798;51.938;4.348;2022-08-19T06:08:17;22.87;;;11.87;;
17361;SDS011;8798;51.938;4.348;2022-08-19T06:10:45;22.73;;;11.83;;
17361;SDS011;8798;51.938;4.348;2022-08-19T06:13:13;26.17;;;11.73;;
17361;SDS011;8798;51.938;4.348;2022-08-19T06:15:41;22.13;;;11.77;;
17361;SDS011;8798;51.938;4.348;2022-08-19T06:18:12;24.07;;;10.63;;
17361;SDS011;8798;51.938;4.348;2022-08-19T06:20:40;20.00;;;11.60;;
17361;SDS011;8798;51.938;4.348;2022-08-19T06:23:21;20.43;;;10.57;;
17361;SDS011;8798;51.938;4.348;2022-08-19T06:25:49;24.97;;;12.07;;
17361;SDS011;8798;51.938;4.348;2022-08-19T06:28:17;23.50;;;11.50;;
17361;SDS011;8798;51.938;4.348;2022-08-19T06:30:45;20.33;;;11.47;;
17361;SDS011;8798;51.938;4.348;2022-08-19T06:33:14;22.17;;;11.90;;
17361;SDS011;8798;51.938;4.348;2022-08-19T06:35:43;20.97;;;11.53;;
17361;SDS011;8798;51.938;4.348;2022-08-19T06:38:11;22.30;;;10.93;;
17361;SDS011;8798;51.938;4.348;2022-08-19T06:40:39;19.55;;;11.55;;
17361;SDS011;8798;51.938;4.348;2022-08-19T06:43:07;21.57;;;11.00;;
17361;SDS011;8798;51.938;4.348;2022-08-19T06:45:36;20.83;;;10.97;;
17361;SDS011;8798;51.938;4.348;2022-08-19T06:48:05;24.30;;;12.73;;
17361;SDS011;8798;51.938;4.348;2022-08-19T06:50:34;20.70;;;12.00;;
17361;SDS011;8798;51.938;4.348;2022-08-19T06:53:06;20.27;;;11.13;;
17361;SDS011;8798;51.938;4.348;2022-08-19T06:55:34;21.80;;;10.93;;
17361;SDS011;8798;51.938;4.348;2022-08-19T06:58:02;19.70;;;10.80;;
17361;SDS011;8798;51.938;4.348;2022-08-19T07:00:30;14.60;;;9.50;;
17361;SDS011;8798;51.938;4.348;2022-08-19T07:02:59;21.57;;;11.00;;
17361;SDS011;8798;51.938;4.348;2022-08-19T07:05:38;23.47;;;10.30;;
17361;SDS011;8798;51.938;4.348;2022-08-19T07:08:11;15.85;;;9.75;;
17361;SDS011;8798;51.938;4.348;2022-08-19T07:10:42;18.33;;;9.93;;
17361;SDS011;8798;51.938;4.348;2022-08-19T07:13:11;17.97;;;9.97;;
17361;SDS011;8798;51.938;4.348;2022-08-19T07:15:39;16.07;;;9.20;;
17361;SDS011;8798;51.938;4.348;2022-08-19T07:18:07;17.87;;;9.87;;
17361;SDS011;8798;51.938;4.348;2022-08-19T07:20:38;17.50;;;9.07;;
17361;SDS011;8798;51.938;4.348;2022-08-19T07:23:07;12.13;;;8.07;;
17361;SDS011;8798;51.938;4.348;2022-08-19T07:25:42;14.33;;;8.33;;
17361;SDS011;8798;51.938;4.348;2022-08-19T07:28:18;13.67;;;7.47;;
17361;SDS011;8798;51.938;4.348;2022-08-19T07:30:50;14.77;;;7.50;;
17361;SDS011;8798;51.938;4.348;2022-08-19T07:33:18;13.83;;;7.70;;
17361;SDS011;8798;51.938;4.348;2022-08-19T07:35:48;16.93;;;8.20;;
17361;SDS011;8798;51.938;4.348;2022-08-19T07:38:16;11.27;;;7.68;;
17361;SDS011;8798;51.938;4.348;2022-08-19T07:40:44;13.10;;;7.30;;
17361;SDS011;8798;51.938;4.348;2022-08-19T07:43:12;11.97;;;6.87;;
17361;SDS011;8798;51.938;4.348;2022-08-19T07:45:43;15.85;;;7.70;;
17361;SDS011;8798;51.938;4.348;2022-08-19T07:48:13;15.77;;;6.70;;
17361;SDS011;8798;51.938;4.348;2022-08-19T07:50:41;13.07;;;6.63;;
17361;SDS011;8798;51.938;4.348;2022-08-19T07:53:10;10.02;;;6.10;;
17361;SDS011;8798;51.938;4.348;2022-08-19T07:55:39;11.23;;;6.50;;
17361;SDS011;8798;51.938;4.348;2022-08-19T07:58:09;11.07;;;6.77;;
17361;SDS011;8798;51.938;4.348;2022-08-19T08:00:39;10.30;;;5.67;;
17361;SDS011;8798;51.938;4.348;2022-08-19T08:03:08;11.40;;;5.33;;
17361;SDS011;8798;51.938;4.348;2022-08-19T08:05:36;10.23;;;6.03;;
17361;SDS011;8798;51.938;4.348;2022-08-19T08:08:23;9.57;;;5.53;;
17361;SDS011;8798;51.938;4.348;2022-08-19T08:11:13;10.82;;;5.50;;
17361;SDS011;8798;51.938;4.348;2022-08-19T08:13:45;10.65;;;5.00;;
17361;SDS011;8798;51.938;4.348;2022-08-19T08:16:30;10.63;;;5.60;;
17361;SDS011;8798;51.938;4.348;2022-08-19T08:19:05;14.70;;;5.28;;
17361;SDS011;8798;51.938;4.348;2022-08-19T08:21:48;9.90;;;5.18;;
17361;SDS011;8798;51.938;4.348;2022-08-19T08:24:17;9.53;;;5.10;;
17361;SDS011;8798;51.938;4.348;2022-08-19T08:26:46;10.77;;;5.22;;
17361;SDS011;8798;51.938;4.348;2022-08-19T08:29:22;10.93;;;5.15;;
17361;SDS011;8798;51.938;4.348;2022-08-19T08:31:51;8.27;;;4.38;;
17361;SDS011;8798;51.938;4.348;2022-08-19T08:34:25;7.85;;;4.28;;
17361;SDS011;8798;51.938;4.348;2022-08-19T08:36:53;7.28;;;4.43;;
17361;SDS011;8798;51.938;4.348;2022-08-19T08:39:22;8.27;;;4.57;;
17361;SDS011;8798;51.938;4.348;2022-08-19T08:41:51;9.30;;;5.00;;
17361;SDS011;8798;51.938;4.348;2022-08-19T08:44:27;10.00;;;5.00;;
17361;SDS011;8798;51.938;4.348;2022-08-19T08:47:09;10.85;;;4.50;;
17361;SDS011;8798;51.938;4.348;2022-08-19T08:49:41;6.75;;;3.90;;
17361;SDS011;8798;51.938;4.348;2022-08-19T08:52:18;7.40;;;3.92;;
17361;SDS011;8798;51.938;4.348;2022-08-19T08:54:51;6.70;;;3.90;;
17361;SDS011;8798;51.938;4.348;2022-08-19T08:57:23;6.53;;;3.20;;
17361;SDS011;8798;51.938;4.348;2022-08-19T09:00:04;4.15;;;3.45;;
17361;SDS011;8798;51.938;4.348;2022-08-19T09:02:41;9.10;;;4.28;;
17361;SDS011;8798;51.938;4.348;2022-08-19T09:05:09;6.05;;;4.00;;
17361;SDS011;8798;51.938;4.348;2022-08-19T09:07:43;8.65;;;3.60;;
17361;SDS011;8798;51.938;4.348;2022-08-19T09:10:20;6.10;;;3.50;;
17361;SDS011;8798;51.938;4.348;2022-08-19T09:12:55;7.00;;;3.80;;
17361;SDS011;8798;51.938;4.348;2022-08-19T09:15:37;6.22;;;3.58;;
17361;SDS011;8798;51.938;4.348;2022-08-19T09:18:08;5.40;;;3.97;;
17361;SDS011;8798;51.938;4.348;2022-08-19T09:20:44;7.25;;;3.63;;
17361;SDS011;8798;51.938;4.348;2022-08-19T09:23:13;7.82;;;3.00;;
17361;SDS011;8798;51.938;4.348;2022-08-19T09:25:42;4.82;;;2.90;;
17361;SDS011;8798;51.938;4.348;2022-08-19T09:47:59;3.33;;;2.00;;
17361;SDS011;8798;51.938;4.348;2022-08-19T09:50:49;3.17;;;2.28;;
17361;SDS011;8798;51.938;4.348;2022-08-19T09:53:19;4.60;;;2.30;;
17361;SDS011;8798;51.938;4.348;2022-08-19T09:55:57;3.17;;;1.92;;
17361;SDS011;8798;51.938;4.348;2022-08-19T09:58:34;3.08;;;2.00;;
17361;SDS011;8798;51.938;4.348;2022-08-19T10:01:23;2.83;;;1.90;;
17361;SDS011;8798;51.938;4.348;2022-08-19T10:04:00;3.05;;;1.42;;
17361;SDS011;8798;51.938;4.348;2022-08-19T10:06:51;3.60;;;2.13;;
17361;SDS011;8798;51.938;4.348;2022-08-19T10:09:30;2.83;;;1.60;;
17361;SDS011;8798;51.938;4.348;2022-08-19T10:12:15;4.70;;;1.80;;
17361;SDS011;8798;51.938;4.348;2022-08-19T10:14:49;1.58;;;1.38;;
17361;SDS011;8798;51.938;4.348;2022-08-19T10:17:26;3.28;;;1.42;;
17361;SDS011;8798;51.938;4.348;2022-08-19T10:20:22;3.00;;;1.52;;
17361;SDS011;8798;51.938;4.348;2022-08-19T10:23:08;2.10;;;1.30;;
17361;SDS011;8798;51.938;4.348;2022-08-19T10:25:38;1.65;;;1.10;;
17361;SDS011;8798;51.938;4.348;2022-08-19T10:28:21;1.40;;;1.10;;
17361;SDS011;8798;51.938;4.348;2022-08-19T10:30:55;4.32;;;1.50;;
17361;SDS011;8798;51.938;4.348;2022-08-19T10:33:40;3.38;;;1.17;;
17361;SDS011;8798;51.938;4.348;2022-08-19T10:36:22;1.83;;;1.23;;
17361;SDS011;8798;51.938;4.348;2022-08-19T10:39:28;3.40;;;1.30;;
17361;SDS011;8798;51.938;4.348;2022-08-19T10:42:10;2.83;;;1.23;;
17361;SDS011;8798;51.938;4.348;2022-08-19T10:44:52;2.03;;;1.10;;
17361;SDS011;8798;51.938;4.348;2022-08-19T10:47:39;2.28;;;0.93;;
17361;SDS011;8798;51.938;4.348;2022-08-19T10:50:19;2.92;;;1.20;;
17361;SDS011;8798;51.938;4.348;2022-08-19T10:53:20;2.17;;;0.90;;
17361;SDS011;8798;51.938;4.348;2022-08-19T10:55:59;4.00;;;1.20;;
17361;SDS011;8798;51.938;4.348;2022-08-19T10:58:52;1.85;;;0.80;;
17361;SDS011;8798;51.938;4.348;2022-08-19T11:01:30;2.45;;;1.00;;
17361;SDS011;8798;51.938;4.348;2022-08-19T11:04:10;1.42;;;0.80;;
17361;SDS011;8798;51.938;4.348;2022-08-19T11:06:56;1.75;;;0.90;;
17361;SDS011;8798;51.938;4.348;2022-08-19T11:09:31;2.03;;;1.42;;
17361;SDS011;8798;51.938;4.348;2022-08-19T11:12:10;1.23;;;0.80;;
17361;SDS011;8798;51.938;4.348;2022-08-19T11:14:49;0.70;;;0.60;;
17361;SDS011;8798;51.938;4.348;2022-08-19T11:17:22;2.03;;;0.90;;
17361;SDS011;8798;51.938;4.348;2022-08-19T11:20:00;1.27;;;0.80;;
17361;SDS011;8798;51.938;4.348;2022-08-19T11:22:36;2.22;;;1.38;;
17361;SDS011;8798;51.938;4.348;2022-08-19T11:25:11;2.45;;;1.20;;
17361;SDS011;8798;51.938;4.348;2022-08-19T11:27:41;1.65;;;1.08;;
17361;SDS011;8798;51.938;4.348;2022-08-19T11:30:12;1.40;;;1.00;;
17361;SDS011;8798;51.938;4.348;2022-08-19T11:32:51;1.88;;;1.05;;
17361;SDS011;8798;51.938;4.348;2022-08-19T11:35:19;1.75;;;1.10;;
17361;SDS011;8798;51.938;4.348;2022-08-19T11:37:50;2.13;;;1.25;;
17361;SDS011;8798;51.938;4.348;2022-08-19T11:40:21;1.75;;;1.10;;
17361;SDS011;8798;51.938;4.348;2022-08-19T11:42:50;1.48;;;1.05;;
17361;SDS011;8798;51.938;4.348;2022-08-19T11:45:30;1.92;;;1.30;;
17361;SDS011;8798;51.938;4.348;2022-08-19T11:47:58;1.20;;;1.10;;
17361;SDS011;8798;51.938;4.348;2022-08-19T11:50:26;1.63;;;1.30;;
17361;SDS011;8798;51.938;4.348;2022-08-19T11:52:55;2.30;;;1.20;;
17361;SDS011;8798;51.938;4.348;2022-08-19T11:55:25;2.25;;;1.50;;
17361;SDS011;8798;51.938;4.348;2022-08-19T11:57:53;1.73;;;1.25;;
17361;SDS011;8798;51.938;4.348;2022-08-19T12:00:21;1.92;;;1.23;;
17361;SDS011;8798;51.938;4.348;2022-08-19T12:02:51;2.35;;;1.10;;
17361;SDS011;8798;51.938;4.348;2022-08-19T12:05:21;2.63;;;1.25;;
17361;SDS011;8798;51.938;4.348;2022-08-19T12:07:48;2.25;;;1.10;;
17361;SDS011;8798;51.938;4.348;2022-08-19T12:10:19;2.97;;;1.27;;
17361;SDS011;8798;51.938;4.348;2022-08-19T12:12:55;2.20;;;1.15;;
17361;SDS011;8798;51.938;4.348;2022-08-19T12:15:30;3.30;;;1.15;;
17361;SDS011;8798;51.938;4.348;2022-08-19T12:18:03;1.85;;;1.40;;
17361;SDS011;8798;51.938;4.348;2022-08-19T12:20:34;3.03;;;1.40;;
17361;SDS011;8798;51.938;4.348;2022-08-19T12:23:03;1.40;;;1.13;;
17361;SDS011;8798;51.938;4.348;2022-08-19T12:25:31;4.20;;;1.23;;
17361;SDS011;8798;51.938;4.348;2022-08-19T12:28:00;1.73;;;1.10;;
17361;SDS011;8798;51.938;4.348;2022-08-19T12:30:29;2.00;;;1.02;;
17361;SDS011;8798;51.938;4.348;2022-08-19T12:32:57;2.05;;;0.90;;
17361;SDS011;8798;51.938;4.348;2022-08-19T12:35:32;1.45;;;0.93;;
17361;SDS011;8798;51.938;4.348;2022-08-19T12:38:17;2.05;;;1.20;;
17361;SDS011;8798;51.938;4.348;2022-08-19T12:40:52;2.25;;;1.27;;
17361;SDS011;8798;51.938;4.348;2022-08-19T12:43:32;1.58;;;1.10;;
17361;SDS011;8798;51.938;4.348;2022-08-19T12:46:10;2.28;;;1.10;;
17361;SDS011;8798;51.938;4.348;2022-08-19T12:48:40;1.80;;;1.40;;
17361;SDS011;8798;51.938;4.348;2022-08-19T12:51:21;3.00;;;1.00;;
17361;SDS011;8798;51.938;4.348;2022-08-19T12:53:49;1.15;;;0.88;;
17361;SDS011;8798;51.938;4.348;2022-08-19T12:56:17;1.83;;;1.38;;
17361;SDS011;8798;51.938;4.348;2022-08-19T12:58:50;2.03;;;1.20;;
17361;SDS011;8798;51.938;4.348;2022-08-19T13:01:18;0.93;;;0.90;;
17361;SDS011;8798;51.938;4.348;2022-08-19T13:03:48;1.67;;;1.08;;
17361;SDS011;8798;51.938;4.348;2022-08-19T13:06:18;1.98;;;1.00;;
17361;SDS011;8798;51.938;4.348;2022-08-19T13:08:46;2.03;;;1.40;;
17361;SDS011;8798;51.938;4.348;2022-08-19T13:11:15;0.98;;;0.88;;
17361;SDS011;8798;51.938;4.348;2022-08-19T13:13:46;1.50;;;1.00;;
17361;SDS011;8798;51.938;4.348;2022-08-19T13:16:17;1.63;;;1.10;;
17361;SDS011;8798;51.938;4.348;2022-08-19T13:18:48;2.20;;;1.13;;
17361;SDS011;8798;51.938;4.348;2022-08-19T13:21:25;1.17;;;0.88;;
17361;SDS011;8798;51.938;4.348;2022-08-19T13:23:56;1.45;;;1.05;;
17361;SDS011;8798;51.938;4.348;2022-08-19T13:26:31;2.17;;;1.00;;
17361;SDS011;8798;51.938;4.348;2022-08-19T13:28:59;1.30;;;0.80;;
17361;SDS011;8798;51.938;4.348;2022-08-19T13:32:14;1.60;;;1.10;;
17361;SDS011;8798;51.938;4.348;2022-08-19T13:35:20;3.10;;;1.10;;
17361;SDS011;8798;51.938;4.348;2022-08-19T13:38:00;2.28;;;1.00;;
17361;SDS011;8798;51.938;4.348;2022-08-19T13:40:39;0.93;;;0.80;;
17361;SDS011;8798;51.938;4.348;2022-08-19T13:43:14;1.83;;;0.90;;
17361;SDS011;8798;51.938;4.348;2022-08-19T13:45:48;0.82;;;0.80;;
17361;SDS011;8798;51.938;4.348;2022-08-19T13:48:32;3.00;;;0.98;;
17361;SDS011;8798;51.938;4.348;2022-08-19T13:51:24;1.98;;;1.00;;
17361;SDS011;8798;51.938;4.348;2022-08-19T13:54:07;1.65;;;0.90;;
17361;SDS011;8798;51.938;4.348;2022-08-19T13:56:42;0.88;;;0.85;;
17361;SDS011;8798;51.938;4.348;2022-08-19T13:59:26;2.42;;;1.10;;
17361;SDS011;8798;51.938;4.348;2022-08-19T14:01:57;1.85;;;0.90;;
17361;SDS011;8798;51.938;4.348;2022-08-19T14:04:27;1.77;;;1.15;;
17361;SDS011;8798;51.938;4.348;2022-08-19T14:07:01;1.67;;;1.10;;
17361;SDS011;8798;51.938;4.348;2022-08-19T14:09:29;1.60;;;1.23;;
17361;SDS011;8798;51.938;4.348;2022-08-19T14:11:57;2.22;;;1.05;;
17361;SDS011;8798;51.938;4.348;2022-08-19T14:14:32;3.50;;;1.38;;
17361;SDS011;8798;51.938;4.348;2022-08-19T14:17:09;2.70;;;1.13;;
17361;SDS011;8798;51.938;4.348;2022-08-19T14:19:54;1.90;;;1.05;;
17361;SDS011;8798;51.938;4.348;2022-08-19T14:22:41;2.92;;;1.27;;
17361;SDS011;8798;51.938;4.348;2022-08-19T14:25:18;2.28;;;1.15;;
17361;SDS011;8798;51.938;4.348;2022-08-19T14:27:47;1.83;;;1.35;;
17361;SDS011;8798;51.938;4.348;2022-08-19T14:30:16;2.80;;;1.30;;
17361;SDS011;8798;51.938;4.348;2022-08-19T14:32:52;6.65;;;1.63;;
17361;SDS011;8798;51.938;4.348;2022-08-19T14:35:22;3.83;;;1.42;;
17361;SDS011;8798;51.938;4.348;2022-08-19T14:37:50;2.50;;;1.30;;
17361;SDS011;8798;51.938;4.348;2022-08-19T14:40:27;2.83;;;1.27;;
17361;SDS011;8798;51.938;4.348;2022-08-19T14:43:01;2.92;;;1.48;;
17361;SDS011;8798;51.938;4.348;2022-08-19T14:45:37;2.78;;;1.40;;
17361;SDS011;8798;51.938;4.348;2022-08-19T14:48:09;2.78;;;1.10;;
17361;SDS011;8798;51.938;4.348;2022-08-19T14:51:04;3.03;;;1.15;;
17361;SDS011;8798;51.938;4.348;2022-08-19T14:53:37;2.25;;;1.05;;
17361;SDS011;8798;51.938;4.348;2022-08-19T14:56:15;2.83;;;1.10;;
17361;SDS011;8798;51.938;4.348;2022-08-19T14:58:46;1.70;;;1.13;;
17361;SDS011;8798;51.938;4.348;2022-08-19T15:01:24;3.67;;;1.75;;
17361;SDS011;8798;51.938;4.348;2022-08-19T15:03:53;2.42;;;1.70;;
17361;SDS011;8798;51.938;4.348;2022-08-19T15:06:22;4.15;;;1.90;;
17361;SDS011;8798;51.938;4.348;2022-08-19T15:08:58;3.75;;;2.10;;
17361;SDS011;8798;51.938;4.348;2022-08-19T15:11:30;2.03;;;1.83;;
17361;SDS011;8798;51.938;4.348;2022-08-19T15:14:05;3.03;;;2.00;;
17361;SDS011;8798;51.938;4.348;2022-08-19T15:16:33;3.45;;;2.00;;
17361;SDS011;8798;51.938;4.348;2022-08-19T15:19:04;3.15;;;2.10;;
17361;SDS011;8798;51.938;4.348;2022-08-19T15:22:19;3.42;;;1.75;;
17361;SDS011;8798;51.938;4.348;2022-08-19T15:24:48;2.88;;;1.73;;
17361;SDS011;8798;51.938;4.348;2022-08-19T15:27:22;2.15;;;1.63;;
17361;SDS011;8798;51.938;4.348;2022-08-19T15:29:53;2.75;;;1.45;;
17361;SDS011;8798;51.938;4.348;2022-08-19T15:32:29;2.33;;;1.52;;
17361;SDS011;8798;51.938;4.348;2022-08-19T15:35:00;2.85;;;1.48;;
17361;SDS011;8798;51.938;4.348;2022-08-19T15:37:38;2.17;;;1.35;;
17361;SDS011;8798;51.938;4.348;2022-08-19T15:40:07;1.80;;;1.25;;
17361;SDS011;8798;51.938;4.348;2022-08-19T15:42:37;1.95;;;1.17;;
17361;SDS011;8798;51.938;4.348;2022-08-19T15:45:16;1.35;;;0.90;;